createdAt,value
2023-05-07T16:16:19.339Z,1.80
2023-05-07T16:19:06.782Z,1.92
2023-05-07T16:21:52.993Z,1.92
2023-05-07T16:24:38.233Z,2.72
2023-05-07T16:27:23.507Z,2.92
2023-05-07T16:30:09.035Z,2.58
2023-05-07T16:32:54.405Z,1.45
2023-05-07T16:35:40.106Z,2.20
2023-05-07T16:38:26.859Z,1.90
2023-05-07T16:41:13.267Z,1.63
2023-05-07T16:43:58.621Z,1.50
2023-05-07T16:46:44.549Z,1.90
2023-05-07T16:49:29.828Z,1.73
2023-05-07T16:52:15.208Z,2.05
2023-05-07T16:55:01.427Z,1.70
2023-05-07T16:57:47.132Z,1.58
2023-05-07T17:00:46.322Z,1.67
2023-05-07T17:03:35.296Z,2.15
2023-05-07T17:06:23.207Z,1.75
2023-05-07T17:09:09.334Z,2.05
2023-05-07T17:11:54.838Z,2.25
2023-05-07T17:14:40.288Z,1.80
2023-05-07T17:17:25.556Z,2.05
2023-05-07T17:20:11.973Z,2.08
2023-05-07T17:22:57.285Z,2.13
2023-05-07T17:25:45.512Z,1.65
2023-05-07T17:28:30.620Z,2.25
2023-05-07T17:31:16.096Z,1.67
2023-05-07T17:34:01.392Z,1.73
2023-05-07T17:36:46.553Z,2.03
2023-05-07T17:39:31.802Z,1.55
2023-05-07T17:42:17.285Z,1.70
2023-05-07T17:45:02.382Z,2.17
2023-05-07T17:47:48.035Z,1.67
2023-05-07T17:50:33.354Z,1.88
2023-05-07T17:53:18.544Z,1.58
2023-05-07T17:56:03.750Z,1.80
2023-05-07T17:58:58.606Z,1.80
2023-05-07T18:01:45.236Z,1.92
2023-05-07T18:04:30.806Z,1.98
2023-05-07T18:07:15.826Z,1.75
2023-05-07T18:10:01.559Z,1.60
2023-05-07T18:12:46.721Z,1.77
2023-05-07T18:15:32.085Z,2.17
2023-05-07T18:18:18.627Z,2.00
2023-05-07T18:21:04.182Z,2.33
2023-05-07T18:23:49.536Z,1.75
2023-05-07T18:26:34.456Z,1.77
2023-05-07T18:29:20.113Z,1.92
2023-05-07T18:32:05.290Z,3.08
2023-05-07T18:34:50.392Z,2.10
2023-05-07T18:37:35.687Z,1.73
2023-05-07T18:40:21.027Z,1.70
2023-05-07T18:43:07.078Z,1.70
2023-05-07T18:45:52.661Z,2.13
2023-05-07T18:48:37.966Z,2.38
2023-05-07T18:51:23.529Z,2.10
2023-05-07T18:54:08.653Z,2.17
2023-05-07T18:56:54.180Z,2.05
2023-05-07T18:59:39.441Z,2.50
2023-05-07T19:02:24.716Z,2.40
2023-05-07T19:05:09.921Z,2.65
2023-05-07T19:07:55.313Z,2.15
2023-05-07T19:10:40.953Z,1.98
2023-05-07T19:13:27.396Z,2.22
2023-05-07T19:16:13.890Z,2.22
2023-05-07T19:18:58.921Z,2.35
2023-05-07T19:21:44.321Z,2.40
2023-05-07T19:24:29.547Z,2.30
2023-05-07T19:27:15.087Z,2.63
2023-05-07T19:30:00.426Z,2.28
2023-05-07T19:32:45.985Z,2.60
2023-05-07T19:35:31.378Z,2.50
2023-05-07T19:38:16.922Z,2.20
2023-05-07T19:41:02.631Z,2.85
2023-05-07T19:43:48.270Z,2.65
2023-05-07T19:46:33.635Z,2.78
2023-05-07T19:49:18.953Z,2.38
2023-05-07T19:52:04.687Z,1.95
2023-05-07T19:54:49.909Z,2.50
2023-05-07T19:57:35.195Z,2.75
2023-05-07T20:00:21.882Z,2.53
2023-05-07T20:03:07.480Z,2.70
2023-05-07T20:05:52.833Z,3.10
2023-05-07T20:08:38.472Z,2.60
2023-05-07T20:11:23.685Z,3.00
2023-05-07T20:14:10.027Z,2.33
2023-05-07T20:16:55.407Z,2.70
2023-05-07T20:19:40.502Z,2.10
2023-05-07T20:22:29.507Z,2.60
2023-05-07T20:25:14.972Z,2.70
2023-05-07T20:28:00.042Z,2.80
2023-05-07T20:30:45.233Z,2.40
2023-05-07T20:33:30.980Z,2.85
2023-05-07T20:36:16.171Z,2.95
2023-05-07T20:39:01.736Z,3.40
2023-05-07T20:41:47.279Z,2.85
2023-05-07T20:44:33.805Z,2.80
2023-05-07T20:47:19.435Z,2.47
2023-05-07T20:50:05.413Z,3.03
2023-05-07T20:52:50.646Z,2.60
2023-05-07T20:55:35.891Z,2.80
2023-05-07T20:58:21.035Z,3.55
2023-05-07T21:01:06.833Z,3.65
2023-05-07T21:03:54.117Z,3.25
2023-05-07T21:06:40.296Z,3.53
2023-05-07T21:09:26.299Z,2.97
2023-05-07T21:12:11.587Z,3.40
2023-05-07T21:14:57.302Z,3.60
2023-05-07T21:17:42.892Z,3.20
2023-05-07T21:20:29.583Z,3.60
2023-05-07T21:23:14.527Z,3.78
2023-05-07T21:25:59.943Z,4.47
2023-05-07T21:28:45.472Z,3.42
2023-05-07T21:31:30.933Z,2.88
2023-05-07T21:34:15.988Z,3.40
2023-05-07T21:37:01.350Z,3.53
2023-05-07T21:39:46.437Z,4.32
2023-05-07T21:42:32.098Z,3.28
2023-05-07T21:45:17.379Z,3.90
2023-05-07T21:48:02.773Z,3.45
2023-05-07T21:50:48.981Z,4.43
2023-05-07T21:53:34.846Z,4.25
2023-05-07T21:56:20.141Z,3.75
2023-05-07T21:59:05.675Z,3.97
2023-05-07T22:01:51.174Z,4.10
2023-05-07T22:04:36.585Z,3.47
2023-05-07T22:07:21.787Z,3.67
2023-05-07T22:10:07.777Z,3.90
2023-05-07T22:12:53.351Z,4.55
2023-05-07T22:15:53.240Z,4.18
2023-05-07T22:18:43.738Z,4.28
2023-05-07T22:21:28.986Z,4.05
2023-05-07T22:24:14.259Z,4.07
2023-05-07T22:26:59.959Z,4.43
2023-05-07T22:29:45.657Z,4.60
2023-05-07T22:32:30.767Z,4.72
2023-05-07T22:35:16.397Z,4.53
2023-05-07T22:38:01.711Z,5.25
2023-05-07T22:40:47.199Z,5.32
2023-05-07T22:43:32.250Z,4.25
2023-05-07T22:46:17.798Z,4.80
2023-05-07T22:49:03.269Z,5.32
2023-05-07T22:51:48.502Z,5.15
2023-05-07T22:54:34.013Z,5.25
2023-05-07T22:57:19.089Z,5.45
2023-05-07T23:00:05.755Z,4.68
2023-05-07T23:02:51.500Z,4.80
2023-05-07T23:05:36.436Z,5.22
2023-05-07T23:08:21.901Z,5.00
2023-05-07T23:11:07.567Z,4.70
2023-05-07T23:13:52.793Z,4.80
2023-05-07T23:16:37.967Z,4.82
2023-05-07T23:19:23.628Z,4.13
2023-05-07T23:22:10.089Z,4.65
2023-05-07T23:24:55.170Z,4.40
2023-05-07T23:27:40.618Z,4.75
2023-05-07T23:30:26.021Z,5.03
2023-05-07T23:33:11.221Z,4.45
2023-05-07T23:36:04.694Z,4.28
2023-05-07T23:38:49.933Z,4.85
2023-05-07T23:41:35.755Z,4.80
2023-05-07T23:44:21.224Z,5.25
2023-05-07T23:47:06.686Z,4.97
2023-05-07T23:49:52.219Z,4.90
2023-05-07T23:52:37.513Z,4.32
2023-05-07T23:55:22.664Z,4.88
2023-05-07T23:58:08.186Z,5.00
